Alzada, Montana
Current Conditions -  °F | °C
As of 3:35 AM on Monday 22 Dec 2014 (Local Time) from KSPF Reporting Station
Overcast Overcast  
Wind Chill: 24°   Ceiling: 6000
Heat Index: 36°   Visibility: 10mi
Dew Point: 27°   Wind: 22mph
Humidity: 70%   Direction: 280°W
Pressure: 29.56"   Gusts: 36mph
Location:  45.03°N, 104.42°W
Report Text: KSPF 221035Z AUTO 28019G31KT 10SM BKN060 BKN075 OVC095 02/M03 A2956 RMK AO2
Loading
Personal Weather Stations






























Interactive Weather Map New forecast layout! Learn more

10-Day Weather Forecast

Advertisements
Track Severe Weather on mobile